• Join FlightAware (Why Join?)
  • Login
  • US Flag 
07:32AM EDT


 

Airport Tracker/Info


-or-


 

Live Flight TrackerFlight Track Log ✈ CES7338 ✈ 29-Jan-2014 ✈ ZYMD / MDG - ZSQD / TAO

Flight Track Log - Related Links

Times and Time Zones

All times are in EST time to prevent confusion due to time zone crossing. See the CES7338 flight status page for this flight to view local times or setup timezone preferences in your user account.

Time Position Orientation Groundspeed Altitude Reporting Facility
EST Latitude Longitude Course Direction KTS MPH feet Rate Location/Type
09:09AM 37.9584 122.0256 223° Southwest  Level Estimated
09:10AM 37.8911 121.9581 218° Southwest  Level Estimated
09:11AM 37.8237 121.8907 218° Southwest  Level Estimated
09:12AM 37.7564 121.8234 218° Southwest  Level Estimated
09:13AM 37.6889 121.7562 218° Southwest  Level Estimated
09:14AM 37.6215 121.6892 218° Southwest  Level Estimated
09:15AM 37.5540 121.6223 218° Southwest  Level Estimated
09:16AM 37.4865 121.5555 218° Southwest  Level Estimated
09:17AM 37.4189 121.4888 218° Southwest  Level Estimated
09:18AM 37.3513 121.4222 218° Southwest  Level Estimated
09:19AM 37.2837 121.3558 218° Southwest  Level Estimated
09:20AM 37.2160 121.2895 218° Southwest  Level Estimated
09:21AM 37.1483 121.2233 218° Southwest  Level Estimated
09:22AM 37.0806 121.1572 218° Southwest  Level Estimated
09:23AM 37.0128 121.0912 218° Southwest  Level Estimated
09:24AM 36.9450 121.0254 218° Southwest  Level Estimated
09:25AM 36.8771 120.9596 218° Southwest  Level Estimated
09:26AM 36.8092 120.8940 218° Southwest  Level Estimated
09:27AM 36.7413 120.8285 218° Southwest  Level Estimated
09:28AM 36.6734 120.7631 218° Southwest  Level Estimated
09:29AM 36.6054 120.6979 218° Southwest  Level Estimated
09:30AM 36.5373 120.6327 218° Southwest  Level Estimated
09:31AM 36.4693 120.5677 218° Southwest  Level Estimated
09:32AM 36.4012 120.5027 218° Southwest  Level Estimated
09:33AM 36.3330 120.4379 217° Southwest  Level Estimated
09:34AM 36.2661 120.3744 217° Southwest  Level Estimated
09:35AM 36.2661 120.3744 238° Southwest  Level Estimated
09:36AM 36.2661 120.3744 238° Southwest  Level Estimated
09:37AM 36.2661 120.3744 238° Southwest  Level Estimated
09:38AM 36.2661 120.3744 238° Southwest  Level Estimated
09:39AM 36.2661 120.3744 238° Southwest  Level Estimated
09:40AM 36.2661 120.3744 238° Southwest  Level Estimated
09:41AM 36.2661 120.3744 238° Southwest  Level Estimated
09:42AM 36.2661 120.3744 238° Southwest  Level Estimated
09:43AM 36.2661 120.3744 238° Southwest  Level Estimated
09:44AM 36.2661 120.3744 238° Southwest  Level Estimated
09:45AM 36.2661 120.3744 238° Southwest  Level Estimated
09:46AM 36.2661 120.3744 238° Southwest  Level Estimated
09:47AM 36.2661 120.3744 238° Southwest  Level Estimated
09:48AM 36.2661 120.3744 238° Southwest  Level Estimated
09:49AM 36.2661 120.3744 238° Southwest  Level Estimated